Wright City, Oklahoma
Current Conditions -  °F | °C
As of 6:35 AM on Sunday 23 Nov 2014 (Local Time) from K4O4 Reporting Station
Broken Clouds Broken Clouds  
Wind Chill: 57°   Ceiling: 800
Heat Index: 57°   Visibility: 5mi
Dew Point: 55°   Wind: 0mph
Humidity: 94%   Direction: NA
Pressure: 29.61"   Gusts: NA
Location:  34.06°N, 95°W
Report Text: K4O4 231235Z AUTO 00000KT 5SM BKN008 14/13 A2961 RMK AO2
Loading
Personal Weather Stations






























Interactive Weather Map New forecast layout! Learn more

10-Day Weather Forecast

Advertisements
Track Severe Weather on mobile